Time;durP1;ratioP1;P1;durP2;ratioP2;P2;SDS_P1;SDS_P2;PMS_P1;PMS_P2;Temp;Humidity;BMP_temperature;BMP_pressure;BME280_temperature;BME280_humidity;BME280_pressure;Samples;Min_cycle;Max_cycle;Signal;HPM_P1;HPM_P2
2021/01/22 06:02:53;;;;;;;1.73;1.67;;;9.40;96.90;;;;;;4963203;23;21085;-71
2021/01/22 06:05:20;;;;;;;2.60;1.93;;;9.40;96.80;;;;;;4913904;29;20425;-71
2021/01/22 06:07:46;;;;;;;3.30;1.80;;;9.40;96.80;;;;;;4917795;29;20918;-72
2021/01/22 06:10:20;;;;;;;2.60;1.90;;;9.50;96.50;;;;;;4919594;29;20488;-71
2021/01/22 06:12:54;;;;;;;2.97;2.07;;;9.50;96.50;;;;;;4899339;29;20429;-70
2021/01/22 06:15:22;;;;;;;2.83;2.03;;;9.50;96.60;;;;;;4899855;29;20437;-70
2021/01/22 06:17:53;;;;;;;1.57;1.50;;;9.50;96.50;;;;;;4900576;29;20428;-70
2021/01/22 06:20:23;;;;;;;3.40;1.87;;;9.50;96.60;;;;;;4895228;29;20506;-71
2021/01/22 06:23:13;;;;;;;2.87;2.17;;;9.50;96.60;;;;;;4900664;29;20421;-71
2021/01/22 06:25:41;;;;;;;7.43;2.40;;;9.50;96.50;;;;;;4899014;29;20460;-71
2021/01/22 06:28:09;;;;;;;2.30;1.50;;;9.60;96.30;;;;;;4900369;29;20440;-71
2021/01/22 06:30:36;;;;;;;2.27;2.07;;;9.60;96.20;;;;;;4898858;29;20465;-71
2021/01/22 06:33:05;;;;;;;2.60;1.77;;;9.60;96.10;;;;;;4899070;29;20476;-71
2021/01/22 06:35:32;;;;;;;4.90;1.80;;;9.70;96.00;;;;;;4900375;29;20406;-71
2021/01/22 06:37:59;;;;;;;1.90;1.80;;;9.70;95.90;;;;;;4899159;29;20425;-72
2021/01/22 06:40:25;;;;;;;2.20;1.67;;;9.80;95.70;;;;;;4898547;29;20807;-72
2021/01/22 06:42:52;;;;;;;1.73;1.67;;;9.80;95.60;;;;;;4900381;29;20928;-71
2021/01/22 06:45:23;;;;;;;4.60;2.20;;;9.90;95.30;;;;;;4901435;29;21011;-70
2021/01/22 06:48:01;;;;;;;4.70;2.00;;;9.90;95.20;;;;;;4900624;29;20434;-70
2021/01/22 06:50:29;;;;;;;2.40;1.80;;;9.90;95.10;;;;;;4900256;29;20457;-70
2021/01/22 06:53:09;;;;;;;1.70;1.67;;;9.90;95.00;;;;;;4900386;29;20425;-70
2021/01/22 06:55:50;;;;;;;3.70;1.70;;;10.00;94.90;;;;;;4899031;29;20441;-70
2021/01/22 06:58:26;;;;;;;4.43;1.63;;;10.00;94.90;;;;;;4899112;29;20783;-71
2021/01/22 07:00:53;;;;;;;2.83;1.50;;;10.00;94.80;;;;;;4894904;29;20954;-72
2021/01/22 07:03:36;;;;;;;3.53;2.10;;;10.00;94.70;;;;;;4900500;29;20780;-71
2021/01/22 07:06:07;;;;;;;2.50;1.70;;;10.10;94.50;;;;;;4899192;29;20441;-72
2021/01/22 07:08:56;;;;;;;6.20;2.13;;;10.10;94.50;;;;;;4900284;29;20421;-71
2021/01/22 07:11:25;;;;;;;1.77;1.70;;;10.10;94.40;;;;;;4898207;29;20473;-72
2021/01/22 07:13:51;;;;;;;2.60;1.60;;;10.10;94.50;;;;;;4897974;29;20445;-71
2021/01/22 07:16:17;;;;;;;4.80;1.80;;;10.10;94.30;;;;;;4898907;29;20422;-71
2021/01/22 07:18:54;;;;;;;3.30;1.90;;;10.20;94.20;;;;;;4898542;29;20409;-72
2021/01/22 07:21:24;;;;;;;4.13;3.43;;;10.20;94.30;;;;;;4898550;29;20210;-71
2021/01/22 07:23:56;;;;;;;7.50;2.03;;;10.10;94.30;;;;;;4900106;29;20980;-72
2021/01/22 07:26:46;;;;;;;2.20;1.60;;;10.20;94.30;;;;;;4898612;29;20457;-72
2021/01/22 07:29:13;;;;;;;2.43;1.67;;;10.10;94.30;;;;;;4898303;29;20465;-71
2021/01/22 07:31:56;;;;;;;2.43;1.93;;;10.10;94.40;;;;;;4898100;29;20473;-71
2021/01/22 07:34:45;;;;;;;3.17;1.67;;;10.10;94.40;;;;;;4898591;29;20429;-72
2021/01/22 07:37:35;;;;;;;8.27;2.10;;;10.10;94.50;;;;;;4896429;29;20795;-71
2021/01/22 07:40:06;;;;;;;1.80;1.37;;;10.10;94.70;;;;;;4895991;29;20434;-71
2021/01/22 07:42:32;;;;;;;2.83;1.77;;;10.10;94.70;;;;;;4899514;29;20900;-72
2021/01/22 07:45:09;;;;;;;4.90;1.70;;;10.10;94.70;;;;;;4898455;29;20433;-71
2021/01/22 07:47:35;;;;;;;3.27;1.90;;;10.20;94.70;;;;;;4899479;29;20420;-71
2021/01/22 07:50:06;;;;;;;4.70;2.23;;;10.20;94.50;;;;;;4897758;29;20424;-71
2021/01/22 07:52:39;;;;;;;2.60;1.63;;;10.20;94.70;;;;;;4897913;29;20486;-71
2021/01/22 07:55:12;;;;;;;3.33;1.47;;;10.20;94.70;;;;;;4899062;29;20465;-72
2021/01/22 07:57:38;;;;;;;2.90;1.87;;;10.20;94.70;;;;;;4899266;29;20916;-71
2021/01/22 08:00:10;;;;;;;3.60;2.00;;;10.20;94.90;;;;;;4898759;29;20516;-72
2021/01/22 08:02:36;;;;;;;2.70;1.73;;;10.20;94.90;;;;;;4897633;29;20225;-71
2021/01/22 08:05:07;;;;;;;3.53;2.07;;;10.20;94.70;;;;;;4899152;29;20915;-72
2021/01/22 08:07:42;;;;;;;2.40;1.67;;;10.30;94.50;;;;;;4897979;29;20426;-71
2021/01/22 08:10:11;;;;;;;1.50;1.50;;;10.40;94.30;;;;;;4898579;29;20468;-72
2021/01/22 08:12:37;;;;;;;5.97;1.80;;;10.40;94.30;;;;;;4898933;29;20438;-72
2021/01/22 08:15:19;;;;;;;8.43;2.03;;;10.30;94.40;;;;;;4898734;29;20409;-71
2021/01/22 08:17:49;;;;;;;3.50;1.90;;;10.30;94.50;;;;;;4898845;29;20414;-72
2021/01/22 08:20:18;;;;;;;6.50;2.00;;;10.40;94.40;;;;;;4897246;29;20433;-71
2021/01/22 08:22:57;;;;;;;2.47;2.07;;;10.50;94.20;;;;;;4897452;29;20458;-71
2021/01/22 08:25:43;;;;;;;4.23;1.73;;;10.60;93.90;;;;;;4898638;29;20414;-71
2021/01/22 08:28:09;;;;;;;3.03;1.80;;;10.60;93.80;;;;;;4898536;29;21014;-71
2021/01/22 08:30:36;;;;;;;4.90;2.33;;;10.60;93.90;;;;;;4896487;29;20473;-71
2021/01/22 08:33:04;;;;;;;5.00;1.87;;;10.70;93.80;;;;;;4898574;29;20480;-71
2021/01/22 08:35:30;;;;;;;7.10;1.80;;;10.80;93.80;;;;;;4897363;29;20456;-71
2021/01/22 08:37:57;;;;;;;5.83;2.13;;;10.80;93.70;;;;;;4898325;29;20422;-71
2021/01/22 08:40:35;;;;;;;2.30;1.53;;;10.90;93.40;;;;;;4898218;29;20780;-72
2021/01/22 08:43:03;;;;;;;3.33;1.73;;;11.00;93.30;;;;;;4897130;29;20437;-72
2021/01/22 08:45:29;;;;;;;4.83;1.90;;;11.00;93.30;;;;;;4896965;29;20429;-72
2021/01/22 08:47:55;;;;;;;2.20;1.40;;;11.00;93.30;;;;;;4898322;29;20424;-72
2021/01/22 08:50:21;;;;;;;2.80;1.93;;;11.00;93.30;;;;;;4897856;29;21023;-72
2021/01/22 08:53:06;;;;;;;10.93;2.17;;;11.00;93.30;;;;;;4897087;29;20434;-71
2021/01/22 08:55:32;;;;;;;3.43;2.17;;;10.90;93.40;;;;;;4896856;29;20928;-72
2021/01/22 08:58:06;;;;;;;5.43;1.90;;;10.90;93.60;;;;;;4897056;29;20437;-72
2021/01/22 09:00:32;;;;;;;6.67;1.93;;;10.90;93.70;;;;;;4897698;29;20484;-72
2021/01/22 09:02:59;;;;;;;6.07;2.90;;;10.90;93.80;;;;;;4898040;29;20441;-72
2021/01/22 09:05:25;;;;;;;3.00;1.80;;;10.80;93.80;;;;;;4896870;29;20456;-71
2021/01/22 09:08:11;;;;;;;3.63;1.80;;;10.80;93.90;;;;;;4898227;29;20418;-71
2021/01/22 09:10:49;;;;;;;4.73;2.10;;;10.80;94.00;;;;;;4896369;29;20473;-72
2021/01/22 09:13:16;;;;;;;2.60;1.67;;;10.80;94.40;;;;;;4896792;29;20430;-72
2021/01/22 09:15:43;;;;;;;3.53;2.10;;;10.70;94.70;;;;;;4897983;29;20927;-72
2021/01/22 09:18:22;;;;;;;1.43;1.37;;;10.70;94.80;;;;;;4896744;29;20488;-72
2021/01/22 09:21:17;;;;;;;1.67;1.20;;;10.60;96.10;;;;;;4896367;29;20460;-73
2021/01/22 09:23:46;;;;;;;1.30;1.30;;;10.00;97.30;;;;;;4888433;29;20425;-72
2021/01/22 09:26:11;;;;;;;1.30;1.17;;;9.70;97.30;;;;;;4896849;29;20465;-72
2021/01/22 09:28:37;;;;;;;2.10;1.40;;;9.30;97.30;;;;;;4897887;29;20657;-72
2021/01/22 09:31:02;;;;;;;2.10;1.30;;;9.00;97.30;;;;;;4896296;29;20217;-72
2021/01/22 09:33:29;;;;;;;2.13;1.40;;;8.90;97.30;;;;;;4893147;29;20607;-72
2021/01/22 09:35:55;;;;;;;1.37;1.27;;;8.80;97.30;;;;;;4879523;29;20691;-73
2021/01/22 09:38:21;;;;;;;1.30;1.30;;;8.70;97.30;;;;;;4877650;29;20547;-72
2021/01/22 09:40:47;;;;;;;1.30;1.10;;;8.70;97.30;;;;;;4877973;29;20209;-72
2021/01/22 09:43:15;;;;;;;1.30;1.20;;;8.70;97.30;;;;;;4881985;29;20438;-72
2021/01/22 09:45:41;;;;;;;1.73;1.30;;;8.70;97.30;;;;;;4882714;29;20558;-73
2021/01/22 09:48:07;;;;;;;1.10;1.10;;;8.60;97.30;;;;;;4882816;29;20513;-72
2021/01/22 09:50:32;;;;;;;1.47;1.30;;;8.60;97.30;;;;;;4881316;29;22293;-72
2021/01/22 09:52:58;;;;;;;1.33;1.33;;;8.50;97.30;;;;;;4881738;29;20433;-72
2021/01/22 09:55:24;;;;;;;1.37;1.27;;;8.40;97.30;;;;;;4881099;29;20281;-72
2021/01/22 09:57:51;;;;;;;1.80;1.73;;;8.40;97.30;;;;;;4888488;29;20185;-72
2021/01/22 10:00:16;;;;;;;2.07;1.30;;;8.40;97.30;;;;;;4899952;29;20185;-72
2021/01/22 10:02:43;;;;;;;1.40;1.30;;;8.40;97.30;;;;;;4899785;29;20479;-72
2021/01/22 10:05:09;;;;;;;1.57;1.20;;;8.40;97.30;;;;;;4899617;29;20651;-71
2021/01/22 10:07:35;;;;;;;1.27;1.10;;;8.30;97.30;;;;;;4900136;29;20524;-71
2021/01/22 10:10:01;;;;;;;1.30;1.20;;;8.30;97.30;;;;;;4900941;29;20508;-72
2021/01/22 10:12:27;;;;;;;1.30;1.30;;;8.30;97.30;;;;;;4899892;29;20280;-72
2021/01/22 10:14:53;;;;;;;1.40;1.30;;;8.30;97.30;;;;;;4899707;29;20181;-72
2021/01/22 10:17:20;;;;;;;1.40;1.20;;;8.30;97.30;;;;;;4899910;29;20770;-72
2021/01/22 10:19:45;;;;;;;1.10;1.00;;;8.30;97.30;;;;;;4901159;29;20170;-71
2021/01/22 10:22:11;;;;;;;1.50;1.20;;;8.30;97.30;;;;;;4899473;29;20444;-71
2021/01/22 10:24:37;;;;;;;2.37;2.17;;;8.30;97.30;;;;;;4899724;29;20192;-71
2021/01/22 10:27:03;;;;;;;3.77;2.87;;;8.30;97.30;;;;;;4924964;23;20244;-71
2021/01/22 10:29:29;;;;;;;3.77;3.37;;;8.30;97.30;;;;;;4919677;29;20176;-71
2021/01/22 10:31:54;;;;;;;2.80;2.00;;;8.30;97.30;;;;;;4904884;29;20476;-71
2021/01/22 10:34:20;;;;;;;2.60;1.50;;;8.30;97.30;;;;;;4900777;29;20260;-71
2021/01/22 10:36:46;;;;;;;4.17;2.30;;;8.30;97.30;;;;;;4899400;29;20192;-71
2021/01/22 10:39:12;;;;;;;2.50;1.70;;;8.30;97.30;;;;;;4899626;29;20177;-71
2021/01/22 10:41:37;;;;;;;2.50;1.63;;;8.20;97.30;;;;;;4899002;29;20205;-71
2021/01/22 10:44:04;;;;;;;2.43;1.70;;;8.20;97.30;;;;;;4897817;29;20610;-71
2021/01/22 10:46:31;;;;;;;2.13;1.93;;;8.10;97.30;;;;;;4897730;29;20682;-71
2021/01/22 10:48:59;;;;;;;4.67;1.80;;;8.10;97.30;;;;;;4906277;29;20426;-71
2021/01/22 10:51:24;;;;;;;2.77;1.50;;;8.10;97.30;;;;;;4905143;29;20472;-71
2021/01/22 10:53:50;;;;;;;3.43;1.73;;;8.10;97.30;;;;;;4909271;29;20424;-71
2021/01/22 10:56:16;;;;;;;3.83;1.60;;;8.10;97.30;;;;;;4907733;29;20190;-71
2021/01/22 10:58:42;;;;;;;3.77;1.37;;;8.10;97.30;;;;;;4907708;29;20613;-71
2021/01/22 11:01:07;;;;;;;1.47;1.33;;;8.10;97.30;;;;;;4905852;29;20204;-71
2021/01/22 11:03:33;;;;;;;2.13;1.60;;;8.10;97.30;;;;;;4903968;29;20205;-72
2021/01/22 11:05:59;;;;;;;2.60;1.40;;;8.20;97.30;;;;;;4906805;29;20197;-71
2021/01/22 11:08:25;;;;;;;1.60;1.50;;;8.30;97.30;;;;;;4907408;29;20657;-71
2021/01/22 11:10:51;;;;;;;1.93;1.40;;;8.20;97.30;;;;;;4908651;29;20284;-71
2021/01/22 11:13:17;;;;;;;1.27;1.23;;;8.20;97.10;;;;;;4907736;29;20245;-71
2021/01/22 11:15:44;;;;;;;1.97;1.30;;;8.20;97.20;;;;;;4908553;29;20455;-71
2021/01/22 11:18:10;;;;;;;4.80;1.30;;;8.10;96.80;;;;;;4907531;29;20491;-71
2021/01/22 11:20:37;;;;;;;1.57;1.57;;;8.10;96.90;;;;;;4906125;29;20437;-71
2021/01/22 11:23:03;;;;;;;2.67;1.60;;;8.10;96.50;;;;;;4906223;29;20460;-71
2021/01/22 11:25:28;;;;;;;1.83;1.33;;;8.10;96.30;;;;;;4909043;29;20409;-71
2021/01/22 11:27:54;;;;;;;3.60;1.50;;;8.10;95.70;;;;;;4909481;29;20969;-71
2021/01/22 11:30:20;;;;;;;3.23;1.20;;;8.00;96.00;;;;;;4918249;29;20208;-71
2021/01/22 11:32:46;;;;;;;1.30;1.20;;;8.00;96.00;;;;;;4918096;29;20181;-71
2021/01/22 11:35:12;;;;;;;1.60;1.30;;;8.00;96.00;;;;;;4918520;29;20408;-71
2021/01/22 11:37:39;;;;;;;1.30;1.30;;;7.90;95.50;;;;;;4917378;29;20537;-71
2021/01/22 11:40:07;;;;;;;2.50;1.30;;;7.90;95.50;;;;;;4918294;29;20424;-71
2021/01/22 11:42:33;;;;;;;4.13;1.00;;;7.90;95.50;;;;;;4916916;29;20478;-71
2021/01/22 11:44:59;;;;;;;1.93;1.60;;;7.90;95.50;;;;;;4918434;29;20416;-71
2021/01/22 11:47:24;;;;;;;2.23;1.30;;;7.90;95.60;;;;;;4918087;29;20417;-71
2021/01/22 11:49:50;;;;;;;1.90;1.40;;;7.90;95.50;;;;;;4918059;29;20177;-71
2021/01/22 11:52:16;;;;;;;3.03;1.40;;;7.90;95.80;;;;;;4917220;29;20697;-71
2021/01/22 11:54:43;;;;;;;1.40;1.30;;;7.90;95.80;;;;;;4916895;29;20504;-71
2021/01/22 11:57:08;;;;;;;2.23;1.47;;;7.90;96.10;;;;;;4917076;29;20603;-71
2021/01/22 11:59:34;;;;;;;1.90;1.33;;;7.90;96.10;;;;;;4907016;29;20504;-72
2021/01/22 12:02:00;;;;;;;1.47;1.20;;;7.90;96.00;;;;;;4898838;29;20236;-71
2021/01/22 12:04:26;;;;;;;4.17;1.70;;;7.90;96.20;;;;;;4898544;29;20363;-71
2021/01/22 12:06:52;;;;;;;1.30;1.20;;;8.00;96.20;;;;;;4897888;29;20185;-71
2021/01/22 12:09:18;;;;;;;1.67;1.40;;;7.90;96.30;;;;;;4897794;29;20428;-71
2021/01/22 12:11:44;;;;;;;1.60;1.43;;;8.00;96.30;;;;;;4898584;29;20481;-71
2021/01/22 12:14:09;;;;;;;1.33;1.33;;;7.90;96.50;;;;;;4899061;29;20520;-71
2021/01/22 12:16:35;;;;;;;1.43;1.33;;;7.90;96.60;;;;;;4897586;29;20177;-71
2021/01/22 12:19:01;;;;;;;2.90;1.47;;;7.90;96.90;;;;;;4898890;29;20276;-71
2021/01/22 12:21:27;;;;;;;1.67;1.47;;;7.80;96.90;;;;;;4898476;29;20200;-71
2021/01/22 12:23:52;;;;;;;3.20;1.30;;;7.70;97.20;;;;;;4897625;29;20188;-71
2021/01/22 12:26:18;;;;;;;1.50;1.40;;;7.70;97.30;;;;;;4898612;29;20549;-72
2021/01/22 12:28:44;;;;;;;1.13;1.10;;;7.70;97.30;;;;;;4898947;29;20177;-71
2021/01/22 12:31:10;;;;;;;1.67;1.20;;;7.70;97.30;;;;;;4898086;29;20244;-71
2021/01/22 12:33:36;;;;;;;1.40;1.30;;;7.70;97.30;;;;;;4898755;29;20236;-71
2021/01/22 12:36:04;;;;;;;1.40;1.30;;;7.70;96.80;;;;;;4897368;29;20421;-71
2021/01/22 12:38:30;;;;;;;1.53;1.43;;;7.70;95.70;;;;;;4897509;29;20416;-71
2021/01/22 12:40:56;;;;;;;3.20;1.20;;;7.60;95.50;;;;;;4897208;29;20449;-71
2021/01/22 12:43:22;;;;;;;7.00;1.40;;;7.60;95.50;;;;;;4898507;29;20180;-72
2021/01/22 12:45:47;;;;;;;2.80;1.40;;;7.70;96.20;;;;;;4897028;29;20414;-71
2021/01/22 12:48:13;;;;;;;1.50;1.30;;;7.60;97.30;;;;;;4897110;29;20421;-71
2021/01/22 12:50:41;;;;;;;1.77;1.47;;;7.60;97.30;;;;;;4898217;29;20212;-71
2021/01/22 12:53:06;;;;;;;1.57;1.47;;;7.60;97.30;;;;;;4897072;29;20181;-71
2021/01/22 12:55:32;;;;;;;1.60;1.40;;;7.50;97.30;;;;;;4896884;29;20815;-71
2021/01/22 12:57:58;;;;;;;5.50;1.90;;;7.50;97.30;;;;;;4897173;29;20331;-71
2021/01/22 13:00:23;;;;;;;1.60;1.40;;;7.50;97.30;;;;;;4897787;29;20181;-71
2021/01/22 13:02:49;;;;;;;1.60;1.17;;;7.60;97.30;;;;;;4898230;29;20182;-71
2021/01/22 13:05:15;;;;;;;1.60;1.57;;;7.50;96.80;;;;;;4898268;29;20216;-72
2021/01/22 13:07:42;;;;;;;2.90;2.10;;;7.50;96.80;;;;;;4898112;29;20184;-71
2021/01/22 13:10:08;;;;;;;6.30;1.27;;;7.50;96.90;;;;;;4898159;29;20181;-71
2021/01/22 13:12:34;;;;;;;2.33;1.50;;;7.50;97.10;;;;;;4896803;29;20469;-71
2021/01/22 13:15:00;;;;;;;2.73;1.70;;;7.40;97.10;;;;;;4896500;29;20456;-71
2021/01/22 13:17:26;;;;;;;5.93;2.10;;;7.40;97.30;;;;;;4898027;29;20181;-71
2021/01/22 13:19:52;;;;;;;2.60;1.73;;;7.40;97.30;;;;;;4896810;29;20422;-71
2021/01/22 13:22:17;;;;;;;2.07;1.90;;;7.40;97.30;;;;;;4897835;29;20521;-71
2021/01/22 13:24:43;;;;;;;2.13;1.50;;;7.30;97.30;;;;;;4897902;29;20212;-71
2021/01/22 13:27:09;;;;;;;5.07;2.50;;;7.30;97.30;;;;;;4896648;29;20205;-71
2021/01/22 13:29:34;;;;;;;2.60;1.90;;;7.30;97.30;;;;;;4897714;29;20181;-71
2021/01/22 13:32:00;;;;;;;5.70;3.00;;;7.40;97.30;;;;;;4896293;29;20224;-70
2021/01/22 13:34:26;;;;;;;2.57;1.83;;;7.40;97.30;;;;;;4896766;29;20192;-71
2021/01/22 13:36:51;;;;;;;2.50;2.10;;;7.40;97.30;;;;;;4896526;29;20188;-71
2021/01/22 13:39:17;;;;;;;2.43;1.87;;;7.40;97.30;;;;;;4897736;29;20184;-71
2021/01/22 13:41:43;;;;;;;2.53;1.73;;;7.40;97.30;;;;;;4896398;29;20722;-71
2021/01/22 13:44:09;;;;;;;2.53;1.90;;;7.40;97.30;;;;;;4897551;29;20237;-71
2021/01/22 13:46:35;;;;;;;3.43;2.10;;;7.40;97.30;;;;;;4897879;29;20449;-71
2021/01/22 13:49:00;;;;;;;2.73;2.40;;;7.30;97.30;;;;;;4897668;29;20192;-71
2021/01/22 13:51:26;;;;;;;3.67;1.97;;;7.30;97.30;;;;;;4896024;29;20307;-71
2021/01/22 13:53:52;;;;;;;15.33;6.63;;;7.40;97.30;;;;;;4897650;29;20184;-72
2021/01/22 13:56:21;;;;;;;2.20;1.93;;;7.40;97.30;;;;;;4896581;29;20197;-72
2021/01/22 13:58:47;;;;;;;14.90;9.07;;;7.40;97.30;;;;;;4897261;29;20937;-71
2021/01/22 14:01:13;;;;;;;13.73;6.70;;;7.50;97.30;;;;;;4897254;29;20448;-71
2021/01/22 14:03:39;;;;;;;9.57;5.73;;;7.40;97.30;;;;;;4896430;29;20995;-72
2021/01/22 14:06:05;;;;;;;1.90;1.70;;;7.40;97.30;;;;;;4896380;29;20193;-71
2021/01/22 14:08:31;;;;;;;5.27;2.93;;;7.40;97.30;;;;;;4896255;29;20425;-72
2021/01/22 14:10:56;;;;;;;6.93;3.70;;;7.40;97.30;;;;;;4895072;29;20532;-72
2021/01/22 14:13:22;;;;;;;13.13;8.87;;;7.40;97.30;;;;;;4895399;29;20182;-72
2021/01/22 14:15:48;;;;;;;28.23;13.80;;;7.40;97.30;;;;;;4897247;29;20189;-72
2021/01/22 14:18:15;;;;;;;6.40;3.27;;;7.40;97.30;;;;;;4895798;29;20268;-71
2021/01/22 14:20:41;;;;;;;5.07;2.63;;;7.30;97.30;;;;;;4896350;29;20209;-72
2021/01/22 14:23:07;;;;;;;4.00;3.73;;;7.30;97.30;;;;;;4896349;29;20420;-72
2021/01/22 14:25:32;;;;;;;7.20;4.40;;;7.20;97.30;;;;;;4895291;29;20212;-72
2021/01/22 14:27:58;;;;;;;4.23;1.97;;;7.10;97.30;;;;;;4897844;29;20447;-72
2021/01/22 14:30:31;;;;;;;2.63;1.50;;;7.00;97.30;;;;;;4906888;29;20359;-73
2021/01/22 14:32:57;;;;;;;8.33;1.90;;;7.00;97.30;;;;;;4907169;29;20516;-72
2021/01/22 14:35:23;;;;;;;6.80;3.87;;;7.00;97.30;;;;;;4903681;29;20519;-72
2021/01/22 14:37:48;;;;;;;2.20;1.60;;;7.00;97.30;;;;;;4905492;29;20554;-72
2021/01/22 14:40:14;;;;;;;4.37;1.67;;;6.90;97.30;;;;;;4917317;29;20283;-71
2021/01/22 14:42:41;;;;;;;1.90;1.40;;;6.90;97.30;;;;;;4916836;29;20200;-73
2021/01/22 14:45:09;;;;;;;80.87;31.80;;;6.80;97.30;;;;;;4919863;29;20429;-72
2021/01/22 14:47:35;;;;;;;88.63;33.23;;;6.80;97.30;;;;;;4917300;29;20431;-72
2021/01/22 14:50:04;;;;;;;108.97;45.20;;;6.80;97.30;;;;;;4917025;29;20417;-72
2021/01/22 14:52:31;;;;;;;37.53;14.93;;;6.80;97.30;;;;;;4918799;29;20711;-73
2021/01/22 14:55:03;;;;;;;11.67;5.57;;;6.80;97.30;;;;;;4918213;29;20429;-72
2021/01/22 14:57:29;;;;;;;8.23;2.77;;;6.90;97.30;;;;;;4919042;29;20774;-72
2021/01/22 14:59:54;;;;;;;2.00;1.60;;;6.90;97.30;;;;;;4905464;29;20489;-73
2021/01/22 15:02:20;;;;;;;2.47;2.27;;;6.80;97.30;;;;;;4899075;29;20209;-73
2021/01/22 15:04:46;;;;;;;3.00;1.77;;;6.80;97.30;;;;;;4898999;29;20189;-72
2021/01/22 15:07:12;;;;;;;2.00;1.57;;;6.70;97.30;;;;;;4898948;29;20193;-73
2021/01/22 15:09:38;;;;;;;1.70;1.70;;;6.70;97.30;;;;;;4899922;29;20181;-72
2021/01/22 15:12:05;;;;;;;4.00;2.17;;;6.60;97.30;;;;;;4900026;29;20465;-73
2021/01/22 15:14:30;;;;;;;8.40;2.10;;;6.60;97.30;;;;;;4898856;29;20426;-73
2021/01/22 15:16:56;;;;;;;2.43;1.67;;;6.60;97.30;;;;;;4898426;29;20927;-73
2021/01/22 15:19:25;;;;;;;2.60;1.67;;;6.60;97.30;;;;;;4900283;29;20188;-72
2021/01/22 15:21:51;;;;;;;2.60;1.80;;;6.60;97.30;;;;;;4897114;29;20293;-73
2021/01/22 15:24:17;;;;;;;3.80;1.90;;;6.60;97.30;;;;;;4891117;29;20540;-72
2021/01/22 15:26:43;;;;;;;5.70;2.00;;;6.50;97.30;;;;;;4898468;29;20566;-73
2021/01/22 15:29:08;;;;;;;2.60;1.90;;;6.50;97.30;;;;;;4899454;29;20280;-73
2021/01/22 15:31:34;;;;;;;1.70;1.60;;;6.40;97.30;;;;;;4898156;29;20714;-73
2021/01/22 15:34:00;;;;;;;2.70;1.80;;;6.30;97.30;;;;;;4898572;29;20297;-73
2021/01/22 15:36:26;;;;;;;2.70;2.10;;;6.30;97.30;;;;;;4899643;29;20201;-73
2021/01/22 15:38:52;;;;;;;6.17;1.90;;;6.30;97.30;;;;;;4898294;29;20178;-73
2021/01/22 15:41:18;;;;;;;4.33;2.30;;;6.20;97.30;;;;;;4898695;29;20876;-72
2021/01/22 15:43:43;;;;;;;4.90;2.97;;;6.20;97.30;;;;;;4899772;29;20213;-72
2021/01/22 15:46:09;;;;;;;3.00;2.07;;;6.20;97.30;;;;;;4898388;29;20644;-72
2021/01/22 15:48:35;;;;;;;4.03;2.30;;;6.30;97.30;;;;;;4899743;29;20184;-73
2021/01/22 15:51:00;;;;;;;3.23;2.30;;;6.30;97.30;;;;;;4897860;29;20221;-72
2021/01/22 15:53:26;;;;;;;3.03;2.60;;;6.30;97.30;;;;;;4898519;29;20193;-72
2021/01/22 15:55:52;;;;;;;5.40;2.70;;;6.30;97.30;;;;;;4898179;29;20217;-71
2021/01/22 15:58:18;;;;;;;7.83;3.13;;;6.20;97.30;;;;;;4899367;29;20422;-71
2021/01/22 16:00:43;;;;;;;4.80;3.30;;;6.20;97.30;;;;;;4897559;29;20667;-70
2021/01/22 16:03:09;;;;;;;4.43;2.47;;;6.20;97.30;;;;;;4899198;29;20413;-71
2021/01/22 16:05:35;;;;;;;7.77;3.57;;;6.10;97.30;;;;;;4899129;29;20185;-71
2021/01/22 16:08:01;;;;;;;10.90;5.63;;;6.10;97.30;;;;;;4897681;29;20276;-71
2021/01/22 16:10:26;;;;;;;4.23;2.83;;;6.00;97.30;;;;;;4898756;29;20304;-71
2021/01/22 16:12:56;;;;;;;2.80;2.20;;;5.90;97.30;;;;;;4897511;29;20182;-71
2021/01/22 16:15:22;;;;;;;4.17;2.40;;;5.80;97.30;;;;;;4897972;29;20486;-71
2021/01/22 16:17:51;;;;;;;4.40;2.50;;;5.80;97.30;;;;;;4896961;29;20421;-72
2021/01/22 16:20:17;;;;;;;2.60;2.43;;;5.80;97.30;;;;;;4897366;29;20192;-71
2021/01/22 16:22:42;;;;;;;3.40;2.23;;;5.80;97.30;;;;;;4899492;29;20426;-71
2021/01/22 16:25:09;;;;;;;3.80;2.77;;;5.80;97.30;;;;;;4897455;29;20950;-71
2021/01/22 16:27:35;;;;;;;4.47;2.90;;;5.80;97.30;;;;;;4898641;29;20197;-71
2021/01/22 16:30:00;;;;;;;4.33;2.90;;;5.80;97.30;;;;;;4897248;29;20864;-71
2021/01/22 16:32:26;;;;;;;5.63;2.60;;;5.80;97.30;;;;;;4897466;29;20232;-70
2021/01/22 16:34:52;;;;;;;4.87;3.07;;;5.80;97.30;;;;;;4898717;29;20181;-71
2021/01/22 16:37:17;;;;;;;3.93;2.97;;;5.80;97.30;;;;;;4897520;29;20272;-70
2021/01/22 16:39:43;;;;;;;2.73;2.40;;;5.80;97.30;;;;;;4898641;29;20183;-70
2021/01/22 16:42:09;;;;;;;5.80;3.03;;;5.70;97.30;;;;;;4898448;29;20201;-70
2021/01/22 16:44:35;;;;;;;5.27;2.70;;;5.60;97.30;;;;;;4898333;29;20181;-70
2021/01/22 16:47:00;;;;;;;3.90;2.17;;;5.60;97.30;;;;;;4897296;29;20662;-71
2021/01/22 16:49:26;;;;;;;4.93;2.60;;;5.50;97.30;;;;;;4898233;29;20185;-71
2021/01/22 16:51:53;;;;;;;3.73;3.00;;;5.50;97.30;;;;;;4898051;29;20583;-71
2021/01/22 16:54:18;;;;;;;5.20;3.40;;;5.50;97.30;;;;;;4898513;29;20422;-71
2021/01/22 16:56:44;;;;;;;6.37;3.40;;;5.50;97.30;;;;;;4897228;29;20441;-70
2021/01/22 16:59:10;;;;;;;6.20;3.60;;;5.40;97.30;;;;;;4897315;29;20330;-71
2021/01/22 17:01:36;;;;;;;5.93;4.00;;;5.40;97.30;;;;;;4897069;29;20211;-70
2021/01/22 17:04:01;;;;;;;6.93;4.10;;;5.30;97.30;;;;;;4899288;29;20185;-70
2021/01/22 17:06:27;;;;;;;6.93;4.00;;;5.20;97.30;;;;;;4897465;29;20181;-71
2021/01/22 17:08:53;;;;;;;10.60;4.13;;;5.10;97.30;;;;;;4897560;29;20185;-70
2021/01/22 17:11:18;;;;;;;6.53;4.30;;;4.90;97.30;;;;;;4896700;29;20570;-70
2021/01/22 17:13:44;;;;;;;7.67;5.13;;;4.90;97.30;;;;;;4898304;29;20174;-70
2021/01/22 17:16:10;;;;;;;7.10;4.17;;;4.80;97.30;;;;;;4896854;29;20188;-70
2021/01/22 17:18:35;;;;;;;6.83;4.00;;;4.80;97.30;;;;;;4898341;29;20179;-69
2021/01/22 17:21:01;;;;;;;6.40;4.50;;;4.70;97.30;;;;;;4897531;29;20208;-70
2021/01/22 17:23:26;;;;;;;5.50;4.37;;;4.70;97.30;;;;;;4896619;29;20292;-71
2021/01/22 17:25:52;;;;;;;7.47;3.87;;;4.60;97.30;;;;;;4896775;29;20193;-70
2021/01/22 17:28:18;;;;;;;4.77;3.50;;;4.60;97.30;;;;;;4898011;29;20230;-69
2021/01/22 17:30:43;;;;;;;8.87;5.70;;;4.50;97.30;;;;;;4897742;29;20212;-69
2021/01/22 17:33:09;;;;;;;11.63;4.23;;;4.50;97.30;;;;;;4898006;29;20181;-70
2021/01/22 17:35:35;;;;;;;7.40;4.23;;;4.40;97.30;;;;;;4896771;29;20188;-70
2021/01/22 17:38:00;;;;;;;8.93;4.27;;;4.50;97.30;;;;;;4897982;29;20275;-70
2021/01/22 17:40:26;;;;;;;6.77;4.30;;;4.50;97.30;;;;;;4896470;29;20280;-71
2021/01/22 17:42:52;;;;;;;4.90;3.80;;;4.50;97.30;;;;;;4896847;29;20184;-70
2021/01/22 17:45:17;;;;;;;6.67;4.27;;;4.40;97.30;;;;;;4897995;29;20619;-71
2021/01/22 17:47:45;;;;;;;5.00;3.60;;;4.40;97.30;;;;;;4896629;29;20193;-71
2021/01/22 17:50:20;;;;;;;4.77;3.40;;;4.40;97.30;;;;;;4897229;29;20711;-70
2021/01/22 17:52:46;;;;;;;5.13;4.50;;;4.40;97.30;;;;;;4896568;29;20433;-70
2021/01/22 17:55:13;;;;;;;11.43;4.03;;;4.40;97.30;;;;;;4896285;29;20447;-70
2021/01/22 17:57:39;;;;;;;7.03;3.77;;;4.30;97.30;;;;;;4897112;29;20841;-70
2021/01/22 18:00:06;;;;;;;7.10;4.00;;;4.30;97.30;;;;;;4896504;29;20923;-70
2021/01/22 18:02:31;;;;;;;5.00;3.90;;;4.30;97.30;;;;;;4897906;29;20595;-69
2021/01/22 18:04:57;;;;;;;6.80;4.00;;;4.30;97.30;;;;;;4901272;29;20429;-71
2021/01/22 18:07:23;;;;;;;5.47;3.70;;;4.20;97.30;;;;;;4900298;29;20272;-70
2021/01/22 18:09:48;;;;;;;4.60;3.70;;;4.20;97.30;;;;;;4901594;29;20653;-70
2021/01/22 18:12:14;;;;;;;6.47;4.10;;;4.20;97.30;;;;;;4901409;29;20237;-70
2021/01/22 18:14:41;;;;;;;8.17;4.83;;;4.20;97.30;;;;;;4901132;29;20473;-71
2021/01/22 18:17:09;;;;;;;10.10;4.10;;;4.20;97.30;;;;;;4900628;29;20233;-70
2021/01/22 18:19:36;;;;;;;4.03;3.30;;;4.20;97.30;;;;;;4901919;29;20505;-72
2021/01/22 18:22:06;;;;;;;5.17;3.87;;;4.20;97.30;;;;;;4900244;29;20485;-74
2021/01/22 18:24:32;;;;;;;9.87;5.40;;;4.20;97.30;;;;;;4900360;29;20429;-70
2021/01/22 18:27:14;;;;;;;7.13;5.20;;;4.20;97.30;;;;;;4900499;29;20463;-71
2021/01/22 18:29:41;;;;;;;6.40;3.80;;;4.20;97.30;;;;;;4900760;29;20923;-70
2021/01/22 18:32:07;;;;;;;5.30;3.40;;;4.20;97.30;;;;;;4899392;29;20508;-71
2021/01/22 18:34:33;;;;;;;7.03;3.90;;;4.20;97.30;;;;;;4900131;29;20185;-70
2021/01/22 18:37:07;;;;;;;5.20;3.30;;;4.20;97.30;;;;;;4899551;29;20429;-71
2021/01/22 18:39:34;;;;;;;7.63;4.80;;;4.20;97.30;;;;;;4898995;29;20469;-71
2021/01/22 18:41:59;;;;;;;11.30;5.80;;;4.20;97.30;;;;;;4898953;29;20453;-70
2021/01/22 18:44:25;;;;;;;8.93;4.60;;;4.20;97.30;;;;;;4900713;29;20455;-70
2021/01/22 18:46:51;;;;;;;7.83;3.90;;;4.30;97.30;;;;;;4900665;29;20256;-70
2021/01/22 18:49:16;;;;;;;6.57;4.17;;;4.30;97.30;;;;;;4899623;29;20239;-71
2021/01/22 18:51:43;;;;;;;8.60;4.77;;;4.20;97.30;;;;;;4899778;29;20228;-71
2021/01/22 18:54:15;;;;;;;8.70;3.60;;;4.20;97.30;;;;;;4898816;29;20426;-71
2021/01/22 18:56:43;;;;;;;7.30;4.63;;;4.20;97.30;;;;;;4872961;29;20441;-71
2021/01/22 18:59:12;;;;;;;5.43;3.57;;;4.20;97.30;;;;;;4901607;29;20474;-70